Roberts, Montana
Current Conditions -  °F | °C
As of 3:55 AM on Wednesday 22 Oct 2014 (Local Time) from KPOY Reporting Station
Clear Clear  
Wind Chill: 34°   Ceiling: Unl
Heat Index: 37°   Visibility: 10mi
Dew Point: 23°   Wind: 5mph
Humidity: 56%   Direction: 40°NE
Pressure: 29.99"   Gusts: NA
Location:  45.36°N, 109.19°W
Report Text: KPOY 220955Z AUTO 04004KT 10SM CLR 03/M05 A2999 RMK AO2
Loading
Personal Weather Stations






























Interactive Weather Map
Tropical Storm Tracking
New forecast layout! Learn more

10-Day Weather Forecast

Advertisements
Track Severe Weather on mobile